createdAt,value
2023-02-08T00:00:28.348Z,102545.38
2023-02-08T00:01:29.843Z,102533.31
2023-02-08T00:02:31.384Z,102536.25
2023-02-08T00:03:32.984Z,102536.41
2023-02-08T00:04:34.505Z,102537.59
2023-02-08T00:05:35.979Z,102534.16
2023-02-08T00:06:37.461Z,102529.09
2023-02-08T00:07:39.063Z,102538.56
2023-02-08T00:08:40.600Z,102537.69
2023-02-08T00:09:42.171Z,102537.69
2023-02-08T00:10:43.943Z,102535.97
2023-02-08T00:11:45.510Z,102534.94
2023-02-08T00:12:47.017Z,102538.91
2023-02-08T00:13:48.504Z,102541.66
2023-02-08T00:14:50.040Z,102531.50
2023-02-08T00:15:52.147Z,102527.00
2023-02-08T00:16:53.687Z,102534.56
2023-02-08T00:17:55.206Z,102538.34
2023-02-08T00:18:56.854Z,102538.34
2023-02-08T00:19:58.370Z,102534.34
2023-02-08T00:20:59.877Z,102535.19
2023-02-08T00:22:01.346Z,102531.41
2023-02-08T00:23:02.957Z,102530.56
2023-02-08T00:24:04.536Z,102531.41
2023-02-08T00:25:06.493Z,102529.53
2023-02-08T00:26:08.053Z,102530.56
2023-02-08T00:27:09.569Z,102530.56
2023-02-08T00:28:12.471Z,102527.97
2023-02-08T00:29:14.057Z,102536.22
2023-02-08T00:30:15.630Z,102528.81
2023-02-08T00:31:17.269Z,102529.00
2023-02-08T00:32:18.837Z,102534.50
2023-02-08T00:33:20.763Z,102525.38
2023-02-08T00:34:22.280Z,102533.63
2023-02-08T00:35:25.729Z,102530.34
2023-02-08T00:36:27.512Z,102524.84
2023-02-08T00:37:28.974Z,102529.47
2023-02-08T00:38:30.499Z,102523.09
2023-02-08T00:39:32.038Z,102524.84
2023-02-08T00:40:34.176Z,102530.34
2023-02-08T00:41:35.758Z,102528.63
2023-02-08T00:42:37.241Z,102525.88
2023-02-08T00:43:38.810Z,102526.88
2023-02-08T00:44:40.349Z,102526.03
2023-02-08T00:45:41.969Z,102523.41
2023-02-08T00:46:43.569Z,102530.09
2023-02-08T00:47:45.540Z,102530.25
2023-02-08T00:48:47.016Z,102525.78
2023-02-08T00:49:48.521Z,102536.81
2023-02-08T00:50:58.952Z,102529.41
2023-02-08T00:52:00.450Z,102530.59
2023-02-08T00:53:02.120Z,102528.88
2023-02-08T00:54:03.728Z,102532.47
2023-02-08T00:55:05.342Z,102535.41
2023-02-08T00:56:07.271Z,102530.34
2023-02-08T00:57:08.964Z,102536.03
2023-02-08T00:58:11.599Z,102537.75
2023-02-08T00:59:13.173Z,102533.09
2023-02-08T01:00:14.727Z,102534.13
2023-02-08T01:01:16.319Z,102532.22
2023-02-08T01:02:17.897Z,102532.22
2023-02-08T01:03:20.353Z,102525.69
2023-02-08T01:04:22.101Z,102532.22
2023-02-08T01:05:23.553Z,102522.94
2023-02-08T01:06:25.066Z,102532.22
2023-02-08T01:07:26.534Z,102533.97
2023-02-08T01:08:28.111Z,102534.13
2023-02-08T01:09:30.140Z,102525.00
2023-02-08T01:10:33.698Z,102526.03
2023-02-08T01:11:35.278Z,102534.28
2023-02-08T01:12:36.835Z,102546.34
2023-02-08T01:13:38.433Z,102534.44
2023-02-08T01:14:40.249Z,102540.13
2023-02-08T01:15:41.762Z,102530.28
2023-02-08T01:16:43.229Z,102537.69
2023-02-08T01:17:44.717Z,102537.69
2023-02-08T01:18:46.775Z,102540.44
2023-02-08T01:19:48.251Z,102538.72
2023-02-08T01:20:49.725Z,102533.22
2023-02-08T01:21:51.166Z,102537.00
2023-02-08T01:22:52.656Z,102533.50
2023-02-08T01:23:54.223Z,102545.38
2023-02-08T01:24:55.716Z,102539.00
2023-02-08T01:25:57.277Z,102536.25
2023-02-08T01:26:58.854Z,102533.50
2023-02-08T01:28:00.446Z,102540.75
2023-02-08T01:29:02.015Z,102531.94
2023-02-08T01:30:04.074Z,102527.28
2023-02-08T01:31:24.413Z,102524.88
2023-02-08T01:32:26.682Z,102518.50
2023-02-08T01:33:28.650Z,102524.88
2023-02-08T01:34:30.121Z,102520.38
2023-02-08T01:35:31.629Z,102525.03
2023-02-08T01:36:33.406Z,102510.72
2023-02-08T01:37:35.059Z,102511.69
2023-02-08T01:38:37.695Z,102518.25
2023-02-08T01:39:39.214Z,102515.47
2023-02-08T01:40:40.995Z,102515.47
2023-02-08T01:41:44.494Z,102518.88
2023-02-08T01:42:46.049Z,102513.38
2023-02-08T01:44:06.252Z,102510.47
2023-02-08T01:45:17.611Z,102512.34
2023-02-08T01:46:19.139Z,102511.66
2023-02-08T01:47:20.619Z,102509.91
2023-02-08T01:48:32.137Z,102505.44
2023-02-08T01:49:34.760Z,102504.56
2023-02-08T01:50:40.277Z,102509.91
2023-02-08T01:51:43.332Z,102506.13
2023-02-08T01:52:44.856Z,102513.53
2023-02-08T01:53:46.362Z,102510.63
2023-02-08T01:54:49.448Z,102512.50
2023-02-08T01:55:54.604Z,102480.56
2023-02-08T01:56:56.108Z,102496.00
2023-02-08T01:57:58.005Z,102499.59
2023-02-08T01:59:01.083Z,102503.38
2023-02-08T02:00:12.873Z,102500.63
2023-02-08T02:01:17.473Z,102505.28
2023-02-08T02:02:20.048Z,102511.66
2023-02-08T02:03:22.250Z,102500.78
2023-02-08T02:04:23.856Z,102507.16
2023-02-08T02:05:33.976Z,102497.34
2023-02-08T02:06:36.209Z,102500.22
2023-02-08T02:07:37.818Z,102505.88
2023-02-08T02:08:40.247Z,102497.78
2023-02-08T02:09:50.945Z,102496.06
2023-02-08T02:10:52.422Z,102499.84
2023-02-08T02:11:54.079Z,102493.47
2023-02-08T02:12:55.899Z,102492.75
2023-02-08T02:13:57.703Z,102468.38
2023-02-08T02:14:59.612Z,102489.16
2023-02-08T02:16:01.092Z,102489.16
2023-02-08T02:17:02.656Z,102493.78
2023-02-08T02:18:05.034Z,102484.66
2023-02-08T02:19:07.870Z,102492.94
2023-02-08T02:20:09.766Z,102503.06
2023-02-08T02:21:17.305Z,102489.47
2023-02-08T02:22:32.686Z,102489.47
2023-02-08T02:23:39.985Z,102478.47
2023-02-08T02:25:07.743Z,102485.84
2023-02-08T02:26:09.256Z,102489.75
2023-02-08T02:27:10.769Z,102487.16
2023-02-08T02:28:27.977Z,102489.38
2023-02-08T02:29:38.479Z,102496.06
2023-02-08T02:30:58.583Z,102486.25
2023-02-08T02:32:07.573Z,102489.00
2023-02-08T02:33:15.258Z,102491.00
2023-02-08T02:34:26.226Z,102491.88
2023-02-08T02:35:36.536Z,102488.41
2023-02-08T02:36:48.423Z,102481.34
2023-02-08T02:38:00.777Z,102482.34
2023-02-08T02:39:08.206Z,102480.94
2023-02-08T02:40:20.301Z,102491.09
2023-02-08T02:41:50.921Z,102491.09
2023-02-08T02:43:15.420Z,102483.88
2023-02-08T02:44:36.697Z,102485.34
2023-02-08T02:45:38.206Z,102491.00
2023-02-08T02:46:43.434Z,102492.88
2023-02-08T02:47:57.136Z,102488.56
2023-02-08T02:49:17.064Z,102490.28
2023-02-08T02:50:18.655Z,102484.78
2023-02-08T02:51:32.818Z,102493.03
2023-02-08T02:52:39.038Z,102491.31
2023-02-08T02:53:41.973Z,102470.69
2023-02-08T02:54:48.092Z,102488.84
2023-02-08T02:55:55.163Z,102479.59
2023-02-08T02:56:59.028Z,102480.75
2023-02-08T02:58:00.691Z,102481.59
2023-02-08T02:59:04.117Z,102473.81
2023-02-08T03:00:09.284Z,102471.94
2023-02-08T03:01:10.883Z,102481.06
2023-02-08T03:02:12.535Z,102458.56
2023-02-08T03:03:18.890Z,102477.59
2023-02-08T03:04:32.337Z,102483.09
2023-02-08T03:05:33.882Z,102479.66
2023-02-08T03:06:49.207Z,102472.41
2023-02-08T03:07:55.161Z,102477.91
2023-02-08T03:09:05.502Z,102478.78
2023-02-08T03:10:09.850Z,102480.66
2023-02-08T03:11:14.519Z,102484.28
2023-02-08T03:12:31.036Z,102485.16
2023-02-08T03:13:32.882Z,102479.66
2023-02-08T03:14:41.000Z,102482.41
2023-02-08T03:15:42.488Z,102485.31
2023-02-08T03:17:02.399Z,102484.00
2023-02-08T03:18:03.935Z,102486.22
2023-02-08T03:19:17.796Z,102486.06
2023-02-08T03:20:22.652Z,102481.91
2023-02-08T03:21:29.750Z,102484.66
2023-02-08T03:22:34.242Z,102485.66
2023-02-08T03:23:46.469Z,102489.13
2023-02-08T03:25:17.092Z,102480.72
2023-02-08T03:26:27.521Z,102475.38
2023-02-08T03:27:36.494Z,102482.59
2023-02-08T03:28:41.321Z,102479.84
2023-02-08T03:29:44.945Z,102473.66
2023-02-08T03:30:59.245Z,102475.38
2023-02-08T03:32:01.301Z,102477.97
2023-02-08T03:33:03.596Z,102475.38
2023-02-08T03:34:16.284Z,102478.13
2023-02-08T03:35:20.341Z,102471.59
2023-02-08T03:36:25.000Z,102477.41
2023-02-08T03:37:27.470Z,102476.41
2023-02-08T03:38:29.908Z,102472.78
2023-02-08T03:39:31.410Z,102473.66
2023-02-08T03:40:35.340Z,102477.41
2023-02-08T03:41:37.914Z,102479.16
2023-02-08T03:42:39.425Z,102486.38
2023-02-08T03:43:45.085Z,102478.28
2023-02-08T03:44:47.509Z,102481.91
2023-02-08T03:45:53.141Z,102486.69
2023-02-08T03:47:12.345Z,102487.72
2023-02-08T03:48:14.123Z,102481.19
2023-02-08T03:49:16.880Z,102492.19
2023-02-08T03:50:18.460Z,102488.41
2023-02-08T03:51:19.950Z,102488.41
2023-02-08T03:52:21.579Z,102484.66
2023-02-08T03:53:23.288Z,102487.56
2023-02-08T03:54:25.568Z,102487.56
2023-02-08T03:55:30.541Z,102485.66
2023-02-08T03:56:35.798Z,102492.03
2023-02-08T03:57:43.138Z,102486.69
2023-02-08T03:58:52.505Z,102488.41
2023-02-08T04:00:01.053Z,102485.81
2023-02-08T04:01:28.734Z,102494.94
2023-02-08T04:02:31.189Z,102487.56
2023-02-08T04:03:32.766Z,102489.44
2023-02-08T04:04:35.010Z,102497.69
2023-02-08T04:05:36.618Z,102487.56
2023-02-08T04:06:38.094Z,102488.41
2023-02-08T04:07:39.610Z,102490.16
2023-02-08T04:08:41.187Z,102494.63
2023-02-08T04:09:42.654Z,102489.13
2023-02-08T04:10:44.210Z,102489.44
2023-02-08T04:11:45.677Z,102484.22
2023-02-08T04:12:47.867Z,102490.47
2023-02-08T04:13:49.388Z,102486.69
2023-02-08T04:14:50.890Z,102483.06
2023-02-08T04:15:52.468Z,102481.19
2023-02-08T04:16:54.058Z,102480.31
2023-02-08T04:17:55.534Z,102484.06
2023-02-08T04:18:57.068Z,102473.97
2023-02-08T04:19:58.598Z,102480.31
2023-02-08T04:21:00.128Z,102484.06
2023-02-08T04:22:01.612Z,102469.31
2023-02-08T04:23:03.136Z,102480.31
2023-02-08T04:24:04.667Z,102462.81
2023-02-08T04:25:06.228Z,102466.41
2023-02-08T04:26:08.842Z,102470.91
2023-02-08T04:27:10.388Z,102465.25
2023-02-08T04:28:11.889Z,102474.19
2023-02-08T04:29:13.454Z,102467.84
2023-02-08T04:30:14.912Z,102474.03
2023-02-08T04:31:16.450Z,102465.78
2023-02-08T04:32:18.041Z,102473.00
2023-02-08T04:33:19.516Z,102471.13
2023-02-08T04:34:20.969Z,102471.84
2023-02-08T04:35:22.471Z,102470.97
2023-02-08T04:36:24.027Z,102470.97
2023-02-08T04:37:25.503Z,102471.84
2023-02-08T04:38:26.976Z,102467.34
2023-02-08T04:39:28.445Z,102448.19
2023-02-08T04:40:31.115Z,102468.09
2023-02-08T04:41:32.706Z,102462.59
2023-02-08T04:42:34.614Z,102463.47
2023-02-08T04:43:36.193Z,102449.06
2023-02-08T04:44:37.733Z,102470.69
2023-02-08T04:45:39.275Z,102460.56
2023-02-08T04:46:40.867Z,102468.66
2023-02-08T04:47:42.359Z,102465.03
2023-02-08T04:48:43.966Z,102474.16
2023-02-08T04:49:45.462Z,102474.00
2023-02-08T04:50:46.923Z,102465.91
2023-02-08T04:51:48.481Z,102468.66
2023-02-08T04:52:49.984Z,102470.38
2023-02-08T04:53:51.505Z,102468.66
2023-02-08T04:54:53.029Z,102467.78
2023-02-08T04:55:54.544Z,102471.41
2023-02-08T04:56:56.192Z,102470.38
2023-02-08T04:57:57.886Z,102468.66
2023-02-08T04:58:59.394Z,102466.91
2023-02-08T05:00:00.909Z,102470.69
2023-02-08T05:01:05.812Z,102470.69
2023-02-08T05:02:07.317Z,102468.81
2023-02-08T05:03:08.900Z,102463.16
2023-02-08T05:04:10.446Z,102459.38
2023-02-08T05:05:11.991Z,102473.13
2023-02-08T05:06:13.576Z,102467.63
2023-02-08T05:07:15.120Z,102472.25
2023-02-08T05:08:16.569Z,102462.28
2023-02-08T05:09:18.146Z,102472.41
2023-02-08T05:10:19.659Z,102468.81
2023-02-08T05:11:21.674Z,102465.19
2023-02-08T05:12:23.184Z,102459.53
2023-02-08T05:13:24.694Z,102461.41
2023-02-08T05:14:26.311Z,102464.16
2023-02-08T05:15:27.839Z,102463.16
2023-02-08T05:16:29.300Z,102460.56
2023-02-08T05:17:30.781Z,102462.28
2023-02-08T05:18:32.446Z,102459.69
2023-02-08T05:19:34.053Z,102459.69
2023-02-08T05:20:35.535Z,102468.66
2023-02-08T05:21:37.098Z,102462.28
2023-02-08T05:22:38.604Z,102463.16
2023-02-08T05:23:40.063Z,102462.28
2023-02-08T05:24:41.561Z,102463.47
2023-02-08T05:25:43.071Z,102460.72
2023-02-08T05:26:44.602Z,102458.66
2023-02-08T05:27:46.174Z,102464.16
2023-02-08T05:28:47.673Z,102457.81
2023-02-08T05:29:49.167Z,102452.28
2023-02-08T05:30:50.698Z,102456.78
2023-02-08T05:31:52.233Z,102459.69
2023-02-08T05:32:53.740Z,102459.69
2023-02-08T05:33:55.245Z,102451.44
2023-02-08T05:34:56.735Z,102456.06
2023-02-08T05:35:58.200Z,102459.69
2023-02-08T05:36:59.792Z,102458.81
2023-02-08T05:38:01.297Z,102456.19
2023-02-08T05:39:02.768Z,102458.09
2023-02-08T05:40:04.393Z,102457.22
2023-02-08T05:41:05.850Z,102463.59
2023-02-08T05:42:07.351Z,102458.25
2023-02-08T05:43:08.822Z,102448.47
2023-02-08T05:44:10.286Z,102463.91
2023-02-08T05:45:11.805Z,102463.91
2023-02-08T05:46:13.236Z,102466.66
2023-02-08T05:47:15.032Z,102465.78
2023-02-08T05:48:16.567Z,102464.06
2023-02-08T05:49:18.048Z,102464.06
2023-02-08T05:50:19.680Z,102467.84
2023-02-08T05:51:25.282Z,102469.56
2023-02-08T05:52:26.736Z,102473.31
2023-02-08T05:53:29.611Z,102471.59
2023-02-08T05:54:31.132Z,102466.09
2023-02-08T05:55:32.667Z,102469.88
2023-02-08T05:56:34.705Z,102474.34
2023-02-08T05:57:36.999Z,102475.38
2023-02-08T05:58:38.520Z,102482.06
2023-02-08T05:59:40.053Z,102473.81
2023-02-08T06:00:41.697Z,102477.41
2023-02-08T06:01:43.353Z,102475.69
2023-02-08T06:02:45.104Z,102477.69
2023-02-08T06:03:46.600Z,102482.34
2023-02-08T06:04:48.213Z,102481.47
2023-02-08T06:05:49.660Z,102477.69
2023-02-08T06:06:51.129Z,102480.59
2023-02-08T06:07:52.646Z,102478.88
2023-02-08T06:08:54.205Z,102484.22
2023-02-08T06:09:55.703Z,102481.78
2023-02-08T06:10:57.211Z,102479.19
2023-02-08T06:11:58.681Z,102487.59
2023-02-08T06:13:00.623Z,102483.81
2023-02-08T06:14:03.017Z,102486.41
2023-02-08T06:15:04.601Z,102486.41
2023-02-08T06:16:06.551Z,102469.91
2023-02-08T06:17:08.288Z,102488.16
2023-02-08T06:18:09.742Z,102486.25
2023-02-08T06:19:11.193Z,102481.06
2023-02-08T06:20:12.776Z,102489.31
2023-02-08T06:21:14.228Z,102488.47
2023-02-08T06:22:15.783Z,102494.81
2023-02-08T06:23:17.275Z,102493.78
2023-02-08T06:24:18.733Z,102491.03
2023-02-08T06:25:20.240Z,102493.78
2023-02-08T06:26:21.716Z,102490.34
2023-02-08T06:27:23.186Z,102484.84
2023-02-08T06:28:24.683Z,102490.34
2023-02-08T06:29:26.197Z,102493.09
2023-02-08T06:30:27.821Z,102491.50
2023-02-08T06:31:29.288Z,102491.50
2023-02-08T06:32:31.450Z,102487.91
2023-02-08T06:33:32.897Z,102487.91
2023-02-08T06:34:34.382Z,102496.31
2023-02-08T06:35:35.892Z,102490.22
2023-02-08T06:36:37.635Z,102496.59
2023-02-08T06:37:39.150Z,102485.75
2023-02-08T06:38:40.645Z,102492.09
2023-02-08T06:39:42.107Z,102488.66
2023-02-08T06:40:43.631Z,102487.78
2023-02-08T06:41:45.110Z,102487.63
2023-02-08T06:42:47.140Z,102492.25
2023-02-08T06:43:48.625Z,102497.75
2023-02-08T06:44:55.086Z,102497.75
2023-02-08T06:45:56.968Z,102493.13
2023-02-08T06:46:58.494Z,102506.88
2023-02-08T06:48:00.000Z,102502.25
2023-02-08T06:49:01.543Z,102499.50
2023-02-08T06:50:02.985Z,102499.50
2023-02-08T06:51:04.516Z,102503.25
2023-02-08T06:52:05.980Z,102503.09
2023-02-08T06:53:07.469Z,102497.75
2023-02-08T06:54:08.962Z,102496.03
2023-02-08T06:55:10.425Z,102499.81
2023-02-08T06:56:11.937Z,102499.81
2023-02-08T06:57:13.452Z,102498.94
2023-02-08T06:58:14.923Z,102499.81
2023-02-08T06:59:16.448Z,102498.06
2023-02-08T07:00:17.961Z,102502.69
2023-02-08T07:01:19.555Z,102471.78
2023-02-08T07:02:21.189Z,102508.34
2023-02-08T07:03:22.690Z,102508.19
2023-02-08T07:04:24.181Z,102502.69
2023-02-08T07:05:25.619Z,102505.28
2023-02-08T07:06:27.128Z,102517.16
2023-02-08T07:07:28.617Z,102508.03
2023-02-08T07:08:30.215Z,102499.09
2023-02-08T07:09:33.117Z,102509.06
2023-02-08T07:10:34.628Z,102509.78
2023-02-08T07:11:36.153Z,102505.28
2023-02-08T07:12:37.658Z,102506.00
2023-02-08T07:13:39.227Z,102501.53
2023-02-08T07:14:41.035Z,102508.91
2023-02-08T07:15:42.577Z,102505.13
2023-02-08T07:16:44.071Z,102505.84
2023-02-08T07:17:45.564Z,102509.31
2023-02-08T07:18:47.048Z,102505.53
2023-02-08T07:19:48.565Z,102504.41
2023-02-08T07:20:50.061Z,102507.00
2023-02-08T07:21:51.524Z,102501.34
2023-02-08T07:22:53.044Z,102504.94
2023-02-08T07:23:54.524Z,102494.81
2023-02-08T07:24:55.989Z,102498.59
2023-02-08T07:26:12.119Z,102494.81
2023-02-08T07:27:13.683Z,102496.69
2023-02-08T07:28:15.263Z,102494.81
2023-02-08T07:29:16.772Z,102496.56
2023-02-08T07:30:18.274Z,102498.28
2023-02-08T07:31:19.810Z,102490.03
2023-02-08T07:32:21.298Z,102494.50
2023-02-08T07:33:22.853Z,102492.47
2023-02-08T07:34:24.313Z,102492.31
2023-02-08T07:35:25.784Z,102494.19
2023-02-08T07:36:27.310Z,102487.72
2023-02-08T07:37:28.755Z,102503.19
2023-02-08T07:38:30.308Z,102504.06
2023-02-08T07:39:31.885Z,102504.91
2023-02-08T07:40:33.410Z,102497.22
2023-02-08T07:41:34.893Z,102498.78
2023-02-08T07:42:36.394Z,102505.72
2023-02-08T07:43:51.452Z,102500.16
2023-02-08T07:44:52.913Z,102500.97
2023-02-08T07:45:55.015Z,102506.41
2023-02-08T07:46:56.523Z,102505.50
2023-02-08T07:47:58.002Z,102497.16
2023-02-08T07:48:59.516Z,102497.25
2023-02-08T07:50:01.092Z,102498.91
2023-02-08T07:51:02.767Z,102492.13
2023-02-08T07:52:04.309Z,102490.38
2023-02-08T07:53:05.819Z,102495.84
2023-02-08T07:54:07.424Z,102500.31
2023-02-08T07:55:09.882Z,102493.69
2023-02-08T07:56:11.557Z,102495.72
2023-02-08T07:57:16.329Z,102489.44
2023-02-08T07:58:17.848Z,102480.53
2023-02-08T07:59:19.290Z,102485.78
2023-02-08T08:00:20.946Z,102483.56
2023-02-08T08:01:23.162Z,102482.06
2023-02-08T08:02:24.725Z,102482.59
2023-02-08T08:03:26.203Z,102476.19
2023-02-08T08:04:27.651Z,102474.44
2023-02-08T08:05:29.176Z,102474.59
2023-02-08T08:06:30.695Z,102473.75
2023-02-08T08:07:32.172Z,102474.06
2023-02-08T08:08:33.669Z,102472.25
2023-02-08T08:09:35.144Z,102474.59
2023-02-08T08:10:36.647Z,102478.31
2023-02-08T08:11:38.187Z,102477.41
2023-02-08T08:12:39.681Z,102476.59
2023-02-08T08:13:41.193Z,102470.28
2023-02-08T08:14:42.679Z,102474.44
2023-02-08T08:15:44.210Z,102474.69
2023-02-08T08:16:45.666Z,102472.47
2023-02-08T08:17:47.209Z,102478.63
2023-02-08T08:18:48.797Z,102479.50
2023-02-08T08:19:50.324Z,102471.78
2023-02-08T08:20:51.782Z,102470.63
2023-02-08T08:21:53.293Z,102486.44
2023-02-08T08:22:54.784Z,102476.75
2023-02-08T08:23:56.296Z,102479.56
2023-02-08T08:24:58.744Z,102476.97
2023-02-08T08:26:00.438Z,102472.34
2023-02-08T08:27:04.632Z,102475.09
2023-02-08T08:28:06.292Z,102480.59
2023-02-08T08:29:07.816Z,102479.03
2023-02-08T08:30:10.307Z,102485.16
2023-02-08T08:31:16.747Z,102472.91
2023-02-08T08:32:18.269Z,102478.22
2023-02-08T08:33:19.858Z,102452.78
2023-02-08T08:34:22.471Z,102472.88
2023-02-08T08:35:23.923Z,102477.50
2023-02-08T08:36:25.496Z,102470.72
2023-02-08T08:37:26.967Z,102469.47
2023-02-08T08:38:28.453Z,102471.31
2023-02-08T08:39:30.074Z,102465.78
2023-02-08T08:40:31.669Z,102463.28
2023-02-08T08:41:33.245Z,102472.56
2023-02-08T08:42:35.040Z,102465.34
2023-02-08T08:43:36.550Z,102477.13
2023-02-08T08:44:38.092Z,102474.19
2023-02-08T08:45:39.528Z,102468.22
2023-02-08T08:46:41.101Z,102470.19
2023-02-08T08:47:42.667Z,102462.25
2023-02-08T08:48:44.261Z,102464.91
2023-02-08T08:49:45.757Z,102465.09
2023-02-08T08:50:53.320Z,102469.66
2023-02-08T08:51:54.927Z,102465.59
2023-02-08T08:52:56.525Z,102463.00
2023-02-08T08:53:57.982Z,102464.09
2023-02-08T08:54:59.451Z,102464.31
2023-02-08T08:56:01.020Z,102458.28
2023-02-08T08:57:02.544Z,102461.06
2023-02-08T08:58:04.038Z,102464.47
2023-02-08T08:59:05.630Z,102460.63
2023-02-08T09:00:07.331Z,102457.38
2023-02-08T09:01:08.811Z,102456.28
2023-02-08T09:02:13.872Z,102460.56
2023-02-08T09:03:15.473Z,102456.88
2023-02-08T09:04:17.081Z,102459.00
2023-02-08T09:05:18.625Z,102444.16
2023-02-08T09:06:20.078Z,102444.56
2023-02-08T09:07:21.588Z,102446.06
2023-02-08T09:08:23.169Z,102443.66
2023-02-08T09:09:24.690Z,102449.47
2023-02-08T09:10:26.162Z,102448.97
2023-02-08T09:11:27.754Z,102442.94
2023-02-08T09:12:29.220Z,102435.19
2023-02-08T09:13:30.718Z,102440.06
2023-02-08T09:14:32.205Z,102444.31
2023-02-08T09:15:33.656Z,102444.91
2023-02-08T09:16:35.122Z,102446.16
2023-02-08T09:17:36.632Z,102443.66
2023-02-08T09:18:38.194Z,102454.81
2023-02-08T09:19:39.689Z,102450.47
2023-02-08T09:20:41.603Z,102448.66
2023-02-08T09:21:43.401Z,102447.03
2023-02-08T09:22:44.883Z,102443.25
2023-02-08T09:23:49.266Z,102435.44
2023-02-08T09:24:52.370Z,102449.81
2023-02-08T09:25:53.834Z,102444.38
2023-02-08T09:26:55.329Z,102447.75
2023-02-08T09:27:56.927Z,102438.31
2023-02-08T09:28:58.510Z,102440.41
2023-02-08T09:30:00.160Z,102443.16
2023-02-08T09:31:20.287Z,102440.94
2023-02-08T09:32:23.033Z,102439.13
2023-02-08T09:33:24.575Z,102440.38
2023-02-08T09:34:26.126Z,102441.63
2023-02-08T09:35:27.631Z,102441.78
2023-02-08T09:36:29.785Z,102435.25
2023-02-08T09:37:31.286Z,102438.03
2023-02-08T09:38:34.625Z,102430.38
2023-02-08T09:39:36.371Z,102432.63
2023-02-08T09:40:44.038Z,102431.56
2023-02-08T09:41:54.440Z,102433.41
2023-02-08T09:43:13.058Z,102424.78
2023-02-08T09:44:17.389Z,102433.66
2023-02-08T09:45:31.128Z,102428.16
2023-02-08T09:46:32.740Z,102432.94
2023-02-08T09:47:36.168Z,102425.28
2023-02-08T09:48:38.281Z,102423.97
2023-02-08T09:49:41.043Z,102424.94
2023-02-08T09:50:50.160Z,102425.78
2023-02-08T09:51:53.614Z,102430.06
2023-02-08T09:52:58.230Z,102425.19
2023-02-08T09:54:11.995Z,102422.75
2023-02-08T09:55:17.565Z,102420.78
2023-02-08T09:56:19.683Z,102414.03
2023-02-08T09:57:22.380Z,102415.84
2023-02-08T09:58:27.630Z,102420.50
2023-02-08T09:59:29.842Z,102427.31
2023-02-08T10:00:34.497Z,102422.78
2023-02-08T10:01:35.986Z,102417.16
2023-02-08T10:02:37.525Z,102424.88
2023-02-08T10:03:39.812Z,102416.03
2023-02-08T10:04:45.631Z,102418.72
2023-02-08T10:05:48.106Z,102422.53
2023-02-08T10:06:50.250Z,102425.34
2023-02-08T10:07:51.802Z,102415.53
2023-02-08T10:08:53.350Z,102411.25
2023-02-08T10:09:55.052Z,102420.91
2023-02-08T10:11:03.971Z,102412.13
2023-02-08T10:12:11.389Z,102407.91
2023-02-08T10:13:14.048Z,102404.94
2023-02-08T10:14:27.008Z,102408.59
2023-02-08T10:15:31.580Z,102395.22
2023-02-08T10:16:39.763Z,102402.88
2023-02-08T10:17:44.681Z,102403.53
2023-02-08T10:18:46.148Z,102400.66
2023-02-08T10:19:50.473Z,102403.41
2023-02-08T10:21:10.773Z,102393.31
2023-02-08T10:22:31.032Z,102408.97
2023-02-08T10:23:41.938Z,102404.25
2023-02-08T10:24:47.712Z,102404.59
2023-02-08T10:26:07.547Z,102403.00
2023-02-08T10:27:15.067Z,102407.88
2023-02-08T10:28:22.439Z,102396.34
2023-02-08T10:29:31.504Z,102395.94
2023-02-08T10:30:35.825Z,102398.81
2023-02-08T10:31:46.135Z,102391.63
2023-02-08T10:32:56.769Z,102392.81
2023-02-08T10:34:01.764Z,102391.91
2023-02-08T10:35:05.349Z,102386.69
2023-02-08T10:36:17.131Z,102384.19
2023-02-08T10:37:19.571Z,102377.59
2023-02-08T10:38:21.118Z,102390.22
2023-02-08T10:39:34.772Z,102381.84
2023-02-08T10:40:37.796Z,102376.88
2023-02-08T10:41:39.469Z,102378.72
2023-02-08T10:42:41.224Z,102389.09
2023-02-08T10:43:44.235Z,102381.38
2023-02-08T10:44:54.515Z,102380.84
2023-02-08T10:46:14.815Z,102376.34
2023-02-08T10:47:28.164Z,102378.66
2023-02-08T10:48:32.506Z,102379.78
2023-02-08T10:49:35.075Z,102375.78
2023-02-08T10:50:36.767Z,102368.88
2023-02-08T10:51:38.467Z,102363.75
2023-02-08T10:52:40.044Z,102370.66
2023-02-08T10:53:41.580Z,102371.50
2023-02-08T10:54:43.065Z,102373.03
2023-02-08T10:55:45.791Z,102373.28
2023-02-08T10:56:57.568Z,102364.06
2023-02-08T10:57:59.894Z,102367.47
2023-02-08T10:59:01.946Z,102366.38
2023-02-08T11:00:07.257Z,102370.66
2023-02-08T11:01:09.005Z,102350.38
2023-02-08T11:02:18.471Z,102368.88
2023-02-08T11:03:23.492Z,102365.53
2023-02-08T11:04:25.107Z,102353.81
2023-02-08T11:05:26.551Z,102359.56
2023-02-08T11:06:28.169Z,102355.34
2023-02-08T11:07:29.778Z,102358.03
2023-02-08T11:08:31.325Z,102355.81
2023-02-08T11:09:32.861Z,102350.78
2023-02-08T11:10:34.457Z,102351.81
2023-02-08T11:11:36.589Z,102352.06
2023-02-08T11:12:38.078Z,102347.22
2023-02-08T11:13:40.512Z,102349.47
2023-02-08T11:14:47.196Z,102351.44
2023-02-08T11:15:49.922Z,102349.94
2023-02-08T11:16:55.146Z,102348.81
2023-02-08T11:17:57.983Z,102348.13
2023-02-08T11:19:01.356Z,102345.59
2023-02-08T11:20:02.882Z,102344.53
2023-02-08T11:21:23.900Z,102345.66
2023-02-08T11:22:26.352Z,102342.50
2023-02-08T11:23:31.460Z,102338.66
2023-02-08T11:24:40.184Z,102343.84
2023-02-08T11:25:41.982Z,102342.78
2023-02-08T11:26:43.643Z,102332.88
2023-02-08T11:27:48.062Z,102334.69
2023-02-08T11:29:08.229Z,102326.91
2023-02-08T11:30:18.037Z,102339.38
2023-02-08T11:31:20.013Z,102339.94
2023-02-08T11:32:21.859Z,102340.19
2023-02-08T11:33:23.442Z,102333.31
2023-02-08T11:34:29.282Z,102330.88
2023-02-08T11:35:33.836Z,102333.38
2023-02-08T11:36:35.615Z,102329.28
2023-02-08T11:37:37.076Z,102333.22
2023-02-08T11:38:40.729Z,102328.69
2023-02-08T11:39:58.028Z,102332.16
2023-02-08T11:41:00.517Z,102327.28
2023-02-08T11:42:01.982Z,102324.50
2023-02-08T11:43:03.642Z,102328.38
2023-02-08T11:44:05.976Z,102321.50
2023-02-08T11:45:07.739Z,102324.16
2023-02-08T11:46:09.257Z,102328.72
2023-02-08T11:47:10.801Z,102329.13
2023-02-08T11:48:20.690Z,102333.78
2023-02-08T11:49:23.875Z,102328.94
2023-02-08T11:50:35.340Z,102327.22
2023-02-08T11:51:36.910Z,102319.44
2023-02-08T11:52:39.399Z,102321.47
2023-02-08T11:53:41.133Z,102324.78
2023-02-08T11:54:42.618Z,102317.28
2023-02-08T11:55:44.429Z,102312.94
2023-02-08T11:56:46.043Z,102311.47
2023-02-08T11:57:54.915Z,102310.97
2023-02-08T11:59:06.588Z,102302.25
2023-02-08T12:00:26.945Z,102306.16
2023-02-08T12:01:29.890Z,102282.72
2023-02-08T12:02:38.804Z,102305.34
2023-02-08T12:03:40.389Z,102304.75
2023-02-08T12:04:42.039Z,102310.47